Marchen Maersk — OUIY2 — position and weather

sailwx.info

Track history (hours):
 
Tides and Currents Weather Stations Pressure Air Temp Water Temp Dewpoint Dewpoint Depression Visibility Wind Speed Wind Dir Waves Ship Positions

Marchen Maersk

Last reported at 2016-Sep-22 00:31 UTC. Time now 2016-Sep-28 05:14 UTC.
Position N 01°16' E 103°46'.

Length 367 m; draft 15.2 m.

Type: Ship (hazmat cat A). MMSI: 220594000.

Date/timePositionNaut miles runAvg speedWind from/ knotsBaromVisibWave heightAir tempDewpointWater temp
2016-Sep-22 00:31N 01°16' E 103°46'0 0.2
2016-Sep-21 23:33N 01°16' E 103°46'1 0.1
2016-Sep-21 03:33N 01°15' E 103°46'7 7.1
2016-Sep-21 02:33N 01°13' E 103°53'  
2016-Sep-18 02:33N 22°27' E 113°53'0 0.1
2016-Sep-18 01:30N 22°28' E 113°53'0 0.0
2016-Sep-18 00:33N 22°28' E 113°53'0 0.0
2016-Sep-17 22:33N 22°28' E 113°53'0 0.0
2016-Sep-17 21:33N 22°28' E 113°53'0 0.0
2016-Sep-17 20:33N 22°28' E 113°53'0 0.0
2016-Sep-17 19:15N 22°28' E 113°53'0 0.0
2016-Sep-17 13:33N 22°28' E 113°53'0 0.0
2016-Sep-17 12:21N 22°28' E 113°53'0 0.0
2016-Sep-17 10:33N 22°28' E 113°53'0 0.0
2016-Sep-17 09:33N 22°28' E 113°53'0 0.0
2016-Sep-17 08:33N 22°28' E 113°53'0 0.0
2016-Sep-17 07:33N 22°28' E 113°53'0 0.1
2016-Sep-17 05:34N 22°27' E 113°53'32710.5
2016-Sep-15 22:29N 24°36' E 119°20'32313.0
2016-Sep-14 21:32N 29°11' E 122°32'4210.7
2016-Sep-14 17:33N 29°50' E 122°13'9 8.9
2016-Sep-14 16:33N 29°54' E 122°03'0 0.1
2016-Sep-14 13:16N 29°53' E 122°03'0 0.0
2016-Sep-14 12:16N 29°53' E 122°03'0 0.0
2016-Sep-14 03:16N 29°53' E 122°03'0 0.0
2016-Sep-13 22:28N 29°53' E 122°03'0 0.0
2016-Sep-13 18:28N 29°53' E 122°03'1 1.6
2016-Sep-13 17:33N 29°55' E 122°04'8 8.5
2016-Sep-13 16:33N 29°51' E 122°12'47 5.2
2016-Sep-13 07:33N 30°25' E 122°48'16 0.7
2016-Sep-12 10:26N 30°31' E 122°32'  
Track history (hours):
 
Tides and Currents Weather Stations Pressure Air Temp Water Temp Dewpoint Dewpoint Depression Visibility Wind Speed Wind Dir Waves Ship Positions

Marchen Maersk

Last reported at 2016-Sep-22 00:31 UTC. Time now 2016-Sep-28 05:14 UTC.
Position N 01°16' E 103°46'.

Length 367 m; draft 15.2 m.

Type: Ship (hazmat cat A). MMSI: 220594000.

Date/timePositionNaut miles runAvg speedWind from/ knotsBaromVisibWave heightAir tempDewpointWater temp
2016-Sep-22 00:31N 01°16' E 103°46'0 0.2
2016-Sep-21 23:33N 01°16' E 103°46'1 0.1
2016-Sep-21 03:33N 01°15' E 103°46'7 7.1
2016-Sep-21 02:33N 01°13' E 103°53'  
2016-Sep-18 02:33N 22°27' E 113°53'0 0.1
2016-Sep-18 01:30N 22°28' E 113°53'0 0.0
2016-Sep-18 00:33N 22°28' E 113°53'0 0.0
2016-Sep-17 22:33N 22°28' E 113°53'0 0.0
2016-Sep-17 21:33N 22°28' E 113°53'0 0.0
2016-Sep-17 20:33N 22°28' E 113°53'0 0.0
2016-Sep-17 19:15N 22°28' E 113°53'0 0.0
2016-Sep-17 13:33N 22°28' E 113°53'0 0.0
2016-Sep-17 12:21N 22°28' E 113°53'0 0.0
2016-Sep-17 10:33N 22°28' E 113°53'0 0.0
2016-Sep-17 09:33N 22°28' E 113°53'0 0.0
2016-Sep-17 08:33N 22°28' E 113°53'0 0.0
2016-Sep-17 07:33N 22°28' E 113°53'0 0.1
2016-Sep-17 05:34N 22°27' E 113°53'32710.5
2016-Sep-15 22:29N 24°36' E 119°20'32313.0
2016-Sep-14 21:32N 29°11' E 122°32'4210.7
2016-Sep-14 17:33N 29°50' E 122°13'9 8.9
2016-Sep-14 16:33N 29°54' E 122°03'0 0.1
2016-Sep-14 13:16N 29°53' E 122°03'0 0.0
2016-Sep-14 12:16N 29°53' E 122°03'0 0.0
2016-Sep-14 03:16N 29°53' E 122°03'0 0.0
2016-Sep-13 22:28N 29°53' E 122°03'0 0.0
2016-Sep-13 18:28N 29°53' E 122°03'1 1.6
2016-Sep-13 17:33N 29°55' E 122°04'8 8.5
2016-Sep-13 16:33N 29°51' E 122°12'47 5.2
2016-Sep-13 07:33N 30°25' E 122°48'16 0.7
2016-Sep-12 10:26N 30°31' E 122°32'  

Dump ship's entire track history